Marianna, Pennsylvania
Current Conditions -  °F | °C
As of 10:35 PM on Friday 28 Nov 2014 (Local Time) from KAFJ Reporting Station
Overcast Overcast  
Wind Chill: 21°   Ceiling: 3900
Heat Index: 27°   Visibility: 10mi
Dew Point: 18°   Wind: 5mph
Humidity: 69%   Direction: 180°S
Pressure: 30.2"   Gusts: NA
Location:  40.02°N, 80.1°W
Report Text: KAFJ 290335Z 18004KT 10SM FEW031 BKN039 OVC046 M03/M08 A3020 RMK AO1
Loading
Personal Weather Stations






























Interactive Weather Map New forecast layout! Learn more

10-Day Weather Forecast

Advertisements
Track Severe Weather on mobile